Terminal Aerodrome Forecast
Issued by NWS

Home | Current Version | Previous Version | Text Only | Print | Product List | Glossary On
Versions: 1 2 3 4 5 6 7 8 9 10 11 12 13 14 15 16 17 18 19 20 21 22 23 24
000
FTUS42 KTBW 182338
TAFLAL
TAF
KLAL 182338Z 1900/1924 18008KT P6SM SCT060
     FM190300 17007KT P6SM SCT030 SCT200
     FM191200 18015G25KT P6SM VCTS SCT020CB OVC050
     FM191700 22024G35KT 4SM TSRA SCT008CB BKN015
     AMD NOT SKED 1903/1912=

USA.gov is the U.S. government's official web portal to all federal, state and local government web resources and services.